createdAt,value
2024-03-14T00:00:09.169Z,3.60
2024-03-14T00:01:09.134Z,2.70
2024-03-14T00:02:09.157Z,3.00
2024-03-14T00:03:09.135Z,3.00
2024-03-14T00:04:17.016Z,3.20
2024-03-14T00:05:09.165Z,2.90
2024-03-14T00:06:09.434Z,3.00
2024-03-14T00:07:09.097Z,3.20
2024-03-14T00:08:09.077Z,3.30
2024-03-14T00:09:09.175Z,3.30
2024-03-14T00:10:09.111Z,3.40
2024-03-14T00:11:09.154Z,2.60
2024-03-14T00:12:09.102Z,3.10
2024-03-14T00:13:09.035Z,3.70
2024-03-14T00:14:09.089Z,3.00
2024-03-14T00:15:09.074Z,3.00
2024-03-14T00:16:09.187Z,2.50
2024-03-14T00:17:09.086Z,2.80
2024-03-14T00:18:09.189Z,3.40
2024-03-14T00:19:08.993Z,2.90
2024-03-14T00:20:08.989Z,3.40
2024-03-14T00:21:09.062Z,3.30
2024-03-14T00:22:08.941Z,2.90
2024-03-14T00:23:09.000Z,3.10
2024-03-14T00:24:09.069Z,3.30
2024-03-14T00:25:09.012Z,3.50
2024-03-14T00:26:08.898Z,2.70
2024-03-14T00:27:09.066Z,2.80
2024-03-14T00:28:08.946Z,2.70
2024-03-14T00:29:08.902Z,2.90
2024-03-14T00:30:08.916Z,3.20
2024-03-14T00:31:08.992Z,3.20
2024-03-14T00:32:08.908Z,2.50
2024-03-14T00:33:09.225Z,2.80
2024-03-14T00:34:08.846Z,2.70
2024-03-14T00:35:08.902Z,2.50
2024-03-14T00:36:08.855Z,2.30
2024-03-14T00:37:08.879Z,3.00
2024-03-14T00:38:08.813Z,2.30
2024-03-14T00:39:09.010Z,2.80
2024-03-14T00:40:08.725Z,2.80
2024-03-14T00:41:08.813Z,3.10
2024-03-14T00:42:08.895Z,2.60
2024-03-14T00:43:08.779Z,3.00
2024-03-14T00:44:08.708Z,2.70
2024-03-14T00:45:08.702Z,3.40
2024-03-14T00:46:08.702Z,3.80
2024-03-14T00:47:08.691Z,2.80
2024-03-14T00:48:08.910Z,2.80
2024-03-14T00:49:08.756Z,2.90
2024-03-14T00:50:08.622Z,2.70
2024-03-14T00:51:08.654Z,2.80
2024-03-14T00:52:08.750Z,2.70
2024-03-14T00:53:08.665Z,2.40
2024-03-14T00:54:08.715Z,2.50
2024-03-14T00:55:08.557Z,2.80
2024-03-14T00:56:08.586Z,2.60
2024-03-14T00:57:08.708Z,3.00
2024-03-14T00:58:08.607Z,2.70
2024-03-14T00:59:08.568Z,2.70
2024-03-14T01:00:08.685Z,2.70
2024-03-14T01:01:08.595Z,3.10
2024-03-14T01:02:08.618Z,2.60
2024-03-14T01:03:08.594Z,2.80
2024-03-14T01:04:08.501Z,3.10
2024-03-14T01:05:08.491Z,3.00
2024-03-14T01:06:08.489Z,2.50
2024-03-14T01:07:08.593Z,3.70
2024-03-14T01:08:08.558Z,2.40
2024-03-14T01:09:08.500Z,2.70
2024-03-14T01:10:08.473Z,2.60
2024-03-14T01:11:08.537Z,2.20
2024-03-14T01:12:08.825Z,2.70
2024-03-14T01:13:08.539Z,3.30
2024-03-14T01:14:08.442Z,2.40
2024-03-14T01:15:08.474Z,3.00
2024-03-14T01:16:08.410Z,2.70
2024-03-14T01:17:08.448Z,3.00
2024-03-14T01:18:08.473Z,2.80
2024-03-14T01:19:08.405Z,2.10
2024-03-14T01:20:08.370Z,2.50
2024-03-14T01:21:08.287Z,3.10
2024-03-14T01:22:08.370Z,2.40
2024-03-14T01:23:08.363Z,2.80
2024-03-14T01:24:08.281Z,2.80
2024-03-14T01:25:08.275Z,3.00
2024-03-14T01:26:08.348Z,2.90
2024-03-14T01:27:08.277Z,2.70
2024-03-14T01:28:08.260Z,2.50
2024-03-14T01:29:08.371Z,2.60
2024-03-14T01:30:08.337Z,2.70
2024-03-14T01:31:08.237Z,2.70
2024-03-14T01:32:08.257Z,2.70
2024-03-14T01:33:08.209Z,3.00
2024-03-14T01:34:08.320Z,2.70
2024-03-14T01:35:08.207Z,2.50
2024-03-14T01:36:08.318Z,3.50
2024-03-14T01:37:08.373Z,2.90
2024-03-14T01:38:08.232Z,2.60
2024-03-14T01:39:08.256Z,2.50
2024-03-14T01:40:08.158Z,2.90
2024-03-14T01:41:08.069Z,3.10
2024-03-14T01:42:08.241Z,2.60
2024-03-14T01:43:08.101Z,3.20
2024-03-14T01:44:08.088Z,3.00
2024-03-14T01:45:08.128Z,3.00
2024-03-14T01:46:08.036Z,2.90
2024-03-14T01:47:08.034Z,2.80
2024-03-14T01:48:08.084Z,3.70
2024-03-14T01:49:08.139Z,3.40
2024-03-14T01:50:08.007Z,2.80
2024-03-14T01:51:08.058Z,3.10
2024-03-14T01:52:07.954Z,2.50
2024-03-14T01:53:07.913Z,3.60
2024-03-14T01:54:07.934Z,3.10
2024-03-14T01:55:07.874Z,2.70
2024-03-14T01:56:07.969Z,3.20
2024-03-14T01:57:07.966Z,3.40
2024-03-14T01:58:07.889Z,3.60
2024-03-14T01:59:07.896Z,3.40
2024-03-14T02:00:07.928Z,3.30
2024-03-14T02:01:07.868Z,2.60
2024-03-14T02:02:07.836Z,3.50
2024-03-14T02:03:07.954Z,2.90
2024-03-14T02:04:07.789Z,2.60
2024-03-14T02:05:07.837Z,2.90
2024-03-14T02:06:07.817Z,3.40
2024-03-14T02:07:07.846Z,2.90
2024-03-14T02:08:07.844Z,3.00
2024-03-14T02:09:07.824Z,3.10
2024-03-14T02:10:07.769Z,2.60
2024-03-14T02:11:07.768Z,3.30
2024-03-14T02:12:07.800Z,3.10
2024-03-14T02:13:07.735Z,2.90
2024-03-14T02:14:07.697Z,2.80
2024-03-14T02:15:07.878Z,3.50
2024-03-14T02:16:07.741Z,2.80
2024-03-14T02:17:15.540Z,2.80
2024-03-14T02:18:07.915Z,3.50
2024-03-14T02:19:07.769Z,3.80
2024-03-14T02:20:15.571Z,3.00
2024-03-14T02:21:07.683Z,2.80
2024-03-14T02:22:07.681Z,2.70
2024-03-14T02:23:07.600Z,3.50
2024-03-14T02:24:07.637Z,4.20
2024-03-14T02:25:07.561Z,3.10
2024-03-14T02:26:07.576Z,2.70
2024-03-14T02:27:07.675Z,2.80
2024-03-14T02:28:07.526Z,3.50
2024-03-14T02:29:07.547Z,3.30
2024-03-14T02:30:07.596Z,3.40
2024-03-14T02:31:07.501Z,3.10
2024-03-14T02:32:07.543Z,3.10
2024-03-14T02:33:07.617Z,2.80
2024-03-14T02:34:07.523Z,3.20
2024-03-14T02:35:07.466Z,3.30
2024-03-14T02:36:07.505Z,3.80
2024-03-14T02:37:07.437Z,3.20
2024-03-14T02:38:07.444Z,3.30
2024-03-14T02:39:07.455Z,3.50
2024-03-14T02:40:07.688Z,3.10
2024-03-14T02:41:07.370Z,2.30
2024-03-14T02:42:07.518Z,3.30
2024-03-14T02:43:07.349Z,4.00
2024-03-14T02:44:07.338Z,3.30
2024-03-14T02:45:07.411Z,3.90
2024-03-14T02:46:07.318Z,3.20
2024-03-14T02:47:07.320Z,3.40
2024-03-14T02:48:07.373Z,2.60
2024-03-14T02:49:07.339Z,3.00
2024-03-14T02:50:07.287Z,3.10
2024-03-14T02:51:07.324Z,3.00
2024-03-14T02:52:07.356Z,3.20
2024-03-14T02:53:07.253Z,3.30
2024-03-14T02:54:07.254Z,3.30
2024-03-14T02:55:07.244Z,3.10
2024-03-14T02:56:07.229Z,3.10
2024-03-14T02:57:07.246Z,3.70
2024-03-14T02:58:07.289Z,2.90
2024-03-14T02:59:07.172Z,2.90
2024-03-14T03:00:07.241Z,3.40
2024-03-14T03:01:07.178Z,3.40
2024-03-14T03:03:25.013Z,3.00
2024-03-14T03:04:25.767Z,3.70
2024-03-14T03:05:25.684Z,3.20
2024-03-14T03:06:25.670Z,3.30
2024-03-14T03:07:25.613Z,3.30
2024-03-14T03:08:25.659Z,3.70
2024-03-14T03:09:25.680Z,3.60
2024-03-14T03:10:25.614Z,3.10
2024-03-14T03:11:25.614Z,3.30
2024-03-14T03:12:25.622Z,3.20
2024-03-14T03:13:25.607Z,3.40
2024-03-14T03:14:25.589Z,2.90
2024-03-14T03:15:25.647Z,3.20
2024-03-14T03:16:25.564Z,3.10
2024-03-14T03:17:25.603Z,2.90
2024-03-14T03:18:25.646Z,2.90
2024-03-14T03:19:25.527Z,3.10
2024-03-14T03:20:25.556Z,3.00
2024-03-14T03:21:25.606Z,3.30
2024-03-14T03:22:25.471Z,3.00
2024-03-14T03:23:25.495Z,4.00
2024-03-14T03:24:25.584Z,3.30
2024-03-14T03:25:25.507Z,3.50
2024-03-14T03:26:25.519Z,3.00
2024-03-14T03:27:25.551Z,2.90
2024-03-14T03:28:28.565Z,3.40
2024-03-14T03:29:25.391Z,3.10
2024-03-14T03:30:25.543Z,3.20
2024-03-14T03:31:25.386Z,2.90
2024-03-14T03:32:25.438Z,3.00
2024-03-14T03:33:25.593Z,3.30
2024-03-14T03:34:25.411Z,3.00
2024-03-14T03:35:26.763Z,3.20
2024-03-14T03:36:25.457Z,2.80
2024-03-14T03:37:25.361Z,3.20
2024-03-14T03:38:25.328Z,3.50
2024-03-14T03:39:25.401Z,2.80
2024-03-14T03:40:25.322Z,3.30
2024-03-14T03:41:25.527Z,3.10
2024-03-14T03:42:25.352Z,3.20
2024-03-14T03:43:25.405Z,2.80
2024-03-14T03:44:25.279Z,3.40
2024-03-14T03:45:25.311Z,3.00
2024-03-14T03:46:25.253Z,3.10
2024-03-14T03:47:25.220Z,3.30
2024-03-14T03:48:25.385Z,2.80
2024-03-14T03:49:25.188Z,2.90
2024-03-14T03:50:25.285Z,3.60
2024-03-14T03:51:25.231Z,3.60
2024-03-14T03:52:25.156Z,3.00
2024-03-14T03:53:25.138Z,3.30
2024-03-14T03:54:25.306Z,3.70
2024-03-14T03:55:25.231Z,3.80
2024-03-14T03:56:25.205Z,3.40
2024-03-14T03:57:25.145Z,3.50
2024-03-14T03:58:25.117Z,3.60
2024-03-14T03:59:25.125Z,4.20
2024-03-14T04:00:25.181Z,3.20
2024-03-14T04:01:25.080Z,3.70
2024-03-14T04:02:25.107Z,3.60
2024-03-14T04:03:25.137Z,3.50
2024-03-14T04:04:25.087Z,3.70
2024-03-14T04:05:33.952Z,4.20
2024-03-14T04:06:25.267Z,3.40
2024-03-14T04:07:25.037Z,3.70
2024-03-14T04:08:25.019Z,3.40
2024-03-14T04:09:25.048Z,3.30
2024-03-14T04:10:25.230Z,3.50
2024-03-14T04:11:24.983Z,3.60
2024-03-14T04:12:25.118Z,3.80
2024-03-14T04:13:24.980Z,3.20
2024-03-14T04:14:25.030Z,3.30
2024-03-14T04:15:25.102Z,3.30
2024-03-14T04:16:24.888Z,3.00
2024-03-14T04:17:25.010Z,2.90
2024-03-14T04:18:24.999Z,3.90
2024-03-14T04:19:32.905Z,3.20
2024-03-14T04:20:24.963Z,3.30
2024-03-14T04:21:24.959Z,2.80
2024-03-14T04:22:24.852Z,3.10
2024-03-14T04:23:24.914Z,3.60
2024-03-14T04:24:24.959Z,3.20
2024-03-14T04:25:24.888Z,3.70
2024-03-14T04:26:24.813Z,3.70
2024-03-14T04:27:25.220Z,3.50
2024-03-14T04:28:25.032Z,4.00
2024-03-14T04:29:24.771Z,2.90
2024-03-14T04:30:25.195Z,3.20
2024-03-14T04:31:24.788Z,3.50
2024-03-14T04:32:24.751Z,3.90
2024-03-14T04:33:24.932Z,2.80
2024-03-14T04:34:24.783Z,3.00
2024-03-14T04:35:24.706Z,3.90
2024-03-14T04:36:24.793Z,3.80
2024-03-14T04:37:24.709Z,3.70
2024-03-14T04:38:24.786Z,3.50
2024-03-14T04:39:24.746Z,3.50
2024-03-14T04:40:24.742Z,3.80
2024-03-14T04:41:32.430Z,2.80
2024-03-14T04:42:24.875Z,3.30
2024-03-14T04:43:24.712Z,3.80
2024-03-14T04:44:24.613Z,3.60
2024-03-14T04:45:24.584Z,3.20
2024-03-14T04:46:24.588Z,3.30
2024-03-14T04:47:24.622Z,3.80
2024-03-14T04:48:24.791Z,3.20
2024-03-14T04:49:24.621Z,3.40
2024-03-14T04:50:24.570Z,3.30
2024-03-14T04:51:24.571Z,3.80
2024-03-14T04:52:24.586Z,3.50
2024-03-14T04:53:24.584Z,3.20
2024-03-14T04:54:24.589Z,3.60
2024-03-14T04:55:24.558Z,2.90
2024-03-14T04:56:24.470Z,3.60
2024-03-14T04:57:24.534Z,3.90
2024-03-14T04:58:24.451Z,2.90
2024-03-14T04:59:24.484Z,3.00
2024-03-14T05:00:24.506Z,2.90
2024-03-14T05:01:24.445Z,3.20
2024-03-14T05:02:24.428Z,3.60
2024-03-14T05:03:24.468Z,3.10
2024-03-14T05:04:24.419Z,3.60
2024-03-14T05:05:24.399Z,2.70
2024-03-14T05:06:24.397Z,3.50
2024-03-14T05:07:24.388Z,3.60
2024-03-14T05:08:24.362Z,3.90
2024-03-14T05:09:24.334Z,3.90
2024-03-14T05:10:24.355Z,3.60
2024-03-14T05:11:24.363Z,4.10
2024-03-14T05:12:24.336Z,4.00
2024-03-14T05:13:26.438Z,3.00
2024-03-14T05:14:24.346Z,3.50
2024-03-14T05:15:24.398Z,3.70
2024-03-14T05:16:24.296Z,2.90
2024-03-14T05:17:24.268Z,3.60
2024-03-14T05:18:24.280Z,3.50
2024-03-14T05:19:26.404Z,3.30
2024-03-14T05:20:24.199Z,3.60
2024-03-14T05:21:24.267Z,3.60
2024-03-14T05:22:24.251Z,3.60
2024-03-14T05:23:24.271Z,3.60
2024-03-14T05:24:24.338Z,5.30
2024-03-14T05:25:24.178Z,3.80
2024-03-14T05:26:24.317Z,4.20
2024-03-14T05:27:24.339Z,3.90
2024-03-14T05:28:24.170Z,3.80
2024-03-14T05:29:24.246Z,4.10
2024-03-14T05:30:24.192Z,3.60
2024-03-14T05:31:24.173Z,3.90
2024-03-14T05:32:24.209Z,3.90
2024-03-14T05:33:24.230Z,3.50
2024-03-14T05:34:24.176Z,3.30
2024-03-14T05:35:24.089Z,3.60
2024-03-14T05:36:24.113Z,3.90
2024-03-14T05:37:24.080Z,4.10
2024-03-14T05:38:24.174Z,3.70
2024-03-14T05:39:24.071Z,4.10
2024-03-14T05:40:24.035Z,3.80
2024-03-14T05:41:23.976Z,3.40
2024-03-14T05:42:23.998Z,3.60
2024-03-14T05:43:24.067Z,4.10
2024-03-14T05:44:23.940Z,4.00
2024-03-14T05:45:23.946Z,4.40
2024-03-14T05:46:23.956Z,4.00
2024-03-14T05:47:23.944Z,4.00
2024-03-14T05:48:24.069Z,4.10
2024-03-14T05:49:23.914Z,4.40
2024-03-14T05:50:23.937Z,3.80
2024-03-14T05:51:24.059Z,3.70
2024-03-14T05:52:23.884Z,3.80
2024-03-14T05:53:23.852Z,3.50
2024-03-14T05:54:23.892Z,4.00
2024-03-14T05:55:23.841Z,4.10
2024-03-14T05:56:23.858Z,4.30
2024-03-14T05:57:23.827Z,4.00
2024-03-14T05:58:23.787Z,4.20
2024-03-14T05:59:23.835Z,4.00
2024-03-14T06:00:23.864Z,4.20
2024-03-14T06:01:24.311Z,3.60
2024-03-14T06:02:23.768Z,4.10
2024-03-14T06:03:23.787Z,4.30
2024-03-14T06:04:35.933Z,3.70
2024-03-14T06:05:23.878Z,4.50
2024-03-14T06:06:23.990Z,4.60
2024-03-14T06:07:23.899Z,4.90
2024-03-14T06:08:23.718Z,5.00
2024-03-14T06:09:23.742Z,4.20
2024-03-14T06:10:23.727Z,4.80
2024-03-14T06:11:23.708Z,4.20
2024-03-14T06:12:23.721Z,3.90
2024-03-14T06:13:23.718Z,4.30
2024-03-14T06:14:23.682Z,4.30
2024-03-14T06:15:23.734Z,3.90
2024-03-14T06:16:23.609Z,3.50
2024-03-14T06:17:23.677Z,4.30
2024-03-14T06:18:23.742Z,4.30
2024-03-14T06:19:23.717Z,4.00
2024-03-14T06:20:23.592Z,4.50
2024-03-14T06:21:23.603Z,4.90
2024-03-14T06:22:23.563Z,4.00
2024-03-14T06:23:23.560Z,4.00
2024-03-14T06:24:23.618Z,4.30
2024-03-14T06:25:23.620Z,5.50
2024-03-14T06:26:23.538Z,4.90
2024-03-14T06:27:23.519Z,4.30
2024-03-14T06:28:23.485Z,3.60
2024-03-14T06:29:40.341Z,4.10
2024-03-14T06:30:24.298Z,4.50
2024-03-14T06:31:23.535Z,4.20
2024-03-14T06:32:23.442Z,4.20
2024-03-14T06:33:23.525Z,3.70
2024-03-14T06:37:02.804Z,4.50
2024-03-14T06:38:03.588Z,3.90
2024-03-14T06:39:03.631Z,3.80
2024-03-14T06:40:03.596Z,4.30
2024-03-14T06:41:03.551Z,4.40
2024-03-14T06:42:03.553Z,4.30
2024-03-14T06:43:03.588Z,3.80
2024-03-14T06:44:03.523Z,4.40
2024-03-14T06:45:03.546Z,4.50
2024-03-14T06:46:03.512Z,4.00
2024-03-14T06:47:03.488Z,4.10
2024-03-14T06:48:03.564Z,4.70
2024-03-14T06:49:03.753Z,4.20
2024-03-14T06:50:03.524Z,5.20
2024-03-14T06:51:03.569Z,4.90
2024-03-14T06:52:03.424Z,4.10
2024-03-14T06:53:03.433Z,5.10
2024-03-14T06:54:04.536Z,4.00
2024-03-14T06:55:03.446Z,4.40
2024-03-14T06:56:03.412Z,4.40
2024-03-14T06:57:03.436Z,4.60
2024-03-14T06:58:03.376Z,4.50
2024-03-14T06:59:03.442Z,5.10
2024-03-14T07:00:03.402Z,4.30
2024-03-14T07:01:03.416Z,3.90
2024-03-14T07:02:03.347Z,4.90
2024-03-14T07:03:03.379Z,4.30
2024-03-14T07:04:03.335Z,4.40
2024-03-14T07:05:04.254Z,4.50
2024-03-14T07:06:03.334Z,5.10
2024-03-14T07:07:03.270Z,5.20
2024-03-14T07:08:03.260Z,4.50
2024-03-14T07:09:03.269Z,3.90
2024-03-14T07:10:03.238Z,4.50
2024-03-14T07:11:03.274Z,4.00
2024-03-14T07:12:03.277Z,4.60
2024-03-14T07:13:03.211Z,4.80
2024-03-14T07:14:03.199Z,4.80
2024-03-14T07:15:03.293Z,4.50
2024-03-14T07:16:03.200Z,4.20
2024-03-14T07:17:03.150Z,4.40
2024-03-14T07:18:03.237Z,4.30
2024-03-14T07:19:03.168Z,4.40
2024-03-14T07:20:03.147Z,3.90
2024-03-14T07:21:03.200Z,5.00
2024-03-14T07:22:03.078Z,3.90
2024-03-14T07:23:03.091Z,4.40
2024-03-14T07:24:03.120Z,4.60
2024-03-14T07:25:04.835Z,4.60
2024-03-14T07:26:03.109Z,5.10
2024-03-14T07:27:03.096Z,4.60
2024-03-14T07:28:03.034Z,4.80
2024-03-14T07:29:03.006Z,4.10
2024-03-14T07:30:03.055Z,4.90
2024-03-14T07:31:03.017Z,4.70
2024-03-14T07:32:03.005Z,4.10
2024-03-14T07:33:03.079Z,4.30
2024-03-14T07:34:03.089Z,5.20
2024-03-14T07:35:03.046Z,4.20
2024-03-14T07:36:02.991Z,4.90
2024-03-14T07:37:02.943Z,4.50
2024-03-14T07:38:02.944Z,3.80
2024-03-14T07:39:02.957Z,4.00
2024-03-14T07:40:03.245Z,3.70
2024-03-14T08:21:16.599Z,3.90
2024-03-14T08:22:17.502Z,4.40
2024-03-14T08:23:17.759Z,4.30
2024-03-14T08:24:17.377Z,3.90
2024-03-14T08:25:17.734Z,4.50
2024-03-14T08:26:17.450Z,4.90
2024-03-14T08:27:17.973Z,4.60
2024-03-14T08:28:17.301Z,4.60
2024-03-14T08:29:17.302Z,4.00
2024-03-14T08:30:17.251Z,4.10
2024-03-14T08:31:17.394Z,4.40
2024-03-14T08:32:17.551Z,4.90
2024-03-14T08:33:17.798Z,4.20
2024-03-14T08:34:17.595Z,4.70
2024-03-14T08:35:17.468Z,5.70
2024-03-14T08:36:18.179Z,4.60
2024-03-14T08:37:17.408Z,5.30
2024-03-14T08:38:17.647Z,4.60
2024-03-14T08:39:18.374Z,4.10
2024-03-14T08:40:17.245Z,4.40
2024-03-14T08:41:17.303Z,4.20
2024-03-14T08:42:17.323Z,5.00
2024-03-14T08:43:17.344Z,4.70
2024-03-14T08:44:17.204Z,3.90
2024-03-14T08:45:17.346Z,3.80
2024-03-14T08:46:17.276Z,4.50
2024-03-14T08:47:17.371Z,3.90
2024-03-14T08:48:17.369Z,3.80
2024-03-14T08:49:17.089Z,3.90
2024-03-14T08:50:17.198Z,4.80
2024-03-14T08:51:17.131Z,4.00
2024-03-14T08:52:17.189Z,5.40
2024-03-14T08:53:17.325Z,3.90
2024-03-14T08:54:17.077Z,4.20
2024-03-14T08:55:17.130Z,4.50
2024-03-14T08:56:17.105Z,4.20
2024-03-14T08:57:17.085Z,4.80
2024-03-14T08:58:16.953Z,5.40
2024-03-14T08:59:16.992Z,4.40
2024-03-14T09:00:17.099Z,4.30
2024-03-14T09:01:16.932Z,5.00
2024-03-14T09:02:16.885Z,4.50
2024-03-14T09:03:16.927Z,4.20
2024-03-14T09:04:17.177Z,4.10
2024-03-14T09:05:17.245Z,4.90
2024-03-14T09:06:17.149Z,4.00
2024-03-14T09:07:17.008Z,4.30
2024-03-14T09:08:16.916Z,4.00
2024-03-14T09:09:16.949Z,3.90
2024-03-14T09:10:16.863Z,4.00
2024-03-14T09:11:16.910Z,4.90
2024-03-14T09:12:18.214Z,4.20
2024-03-14T09:13:16.974Z,4.90
2024-03-14T09:14:16.815Z,5.20
2024-03-14T09:15:16.879Z,4.00
2024-03-14T09:16:16.751Z,4.10
2024-03-14T09:17:16.770Z,4.40
2024-03-14T09:18:17.156Z,4.60
2024-03-14T09:19:16.807Z,4.70
2024-03-14T09:20:16.753Z,5.00
2024-03-14T09:21:16.768Z,4.70
2024-03-14T09:22:16.675Z,5.10
2024-03-14T09:23:16.726Z,4.10
2024-03-14T09:24:16.792Z,4.70
2024-03-14T09:25:16.664Z,4.20
2024-03-14T09:26:16.697Z,4.40
2024-03-14T09:27:16.688Z,4.40
2024-03-14T09:28:16.642Z,3.20
2024-03-14T09:29:16.727Z,4.30
2024-03-14T09:30:16.748Z,4.10
2024-03-14T09:31:16.605Z,4.20
2024-03-14T09:32:16.672Z,4.70
2024-03-14T09:33:16.766Z,4.60
2024-03-14T09:34:16.619Z,3.60
2024-03-14T09:35:16.662Z,4.30
2024-03-14T09:36:16.758Z,4.20
2024-03-14T09:37:16.535Z,4.80
2024-03-14T09:38:16.661Z,3.80
2024-03-14T09:39:16.542Z,4.50
2024-03-14T09:40:16.578Z,4.40
2024-03-14T09:41:21.810Z,4.40
2024-03-14T09:42:16.617Z,4.10
2024-03-14T09:43:16.605Z,5.10
2024-03-14T09:44:16.525Z,4.40
2024-03-14T09:45:16.627Z,3.90
2024-03-14T09:46:16.534Z,4.30
2024-03-14T09:47:16.443Z,4.70
2024-03-14T09:48:16.498Z,4.00
2024-03-14T09:49:16.440Z,4.50
2024-03-14T09:50:16.479Z,5.20
2024-03-14T09:51:16.518Z,4.90
2024-03-14T09:52:16.491Z,4.50
2024-03-14T09:53:16.506Z,4.60
2024-03-14T09:54:16.483Z,5.40
2024-03-14T09:55:16.456Z,4.50
2024-03-14T09:56:16.307Z,4.50
2024-03-14T09:57:16.364Z,4.50
2024-03-14T09:58:16.350Z,4.10
2024-03-14T09:59:16.296Z,4.50
2024-03-14T10:00:16.470Z,4.50
2024-03-14T10:01:16.406Z,4.20
2024-03-14T10:02:16.315Z,4.90
2024-03-14T10:03:16.257Z,4.40
2024-03-14T10:04:16.261Z,3.80
2024-03-14T10:05:16.235Z,3.90
2024-03-14T10:06:16.361Z,5.00
2024-03-14T10:07:16.206Z,3.90
2024-03-14T10:08:16.216Z,4.20
2024-03-14T10:09:20.640Z,4.40
2024-03-14T10:10:16.715Z,4.40
2024-03-14T10:11:16.211Z,4.10
2024-03-14T10:12:16.304Z,4.30
2024-03-14T10:13:16.206Z,5.00
2024-03-14T10:14:16.125Z,4.20
2024-03-14T10:15:16.209Z,4.50
2024-03-14T10:16:16.152Z,5.20
2024-03-14T10:17:16.242Z,4.00
2024-03-14T10:18:16.214Z,4.80
2024-03-14T10:19:16.193Z,4.60
2024-03-14T10:20:16.128Z,4.90
2024-03-14T10:21:16.209Z,4.50
2024-03-14T10:22:16.043Z,4.30
2024-03-14T10:23:16.056Z,4.60
2024-03-14T10:24:16.148Z,4.70
2024-03-14T10:25:16.054Z,4.40
2024-03-14T10:26:16.023Z,4.40
2024-03-14T10:27:15.994Z,4.10
2024-03-14T10:28:16.101Z,4.60
2024-03-14T10:29:15.967Z,4.10
2024-03-14T10:30:15.979Z,4.10
2024-03-14T10:31:16.011Z,4.60
2024-03-14T10:32:16.057Z,3.50
2024-03-14T10:33:17.656Z,4.00
2024-03-14T10:34:16.055Z,4.60
2024-03-14T10:35:16.017Z,3.50
2024-03-14T10:42:41.101Z,3.60
2024-03-14T10:43:42.094Z,4.30
2024-03-14T10:44:42.048Z,3.90
2024-03-14T10:45:42.030Z,4.10
2024-03-14T10:46:41.967Z,3.10
2024-03-14T10:47:42.040Z,4.00
2024-03-14T10:48:42.038Z,4.30
2024-03-14T10:49:41.939Z,3.70
2024-03-14T10:50:41.963Z,3.30
2024-03-14T10:51:42.044Z,4.00
2024-03-14T10:52:41.900Z,3.70
2024-03-14T10:53:41.913Z,4.00
2024-03-14T10:54:41.877Z,4.00
2024-03-14T10:55:41.852Z,3.70
2024-03-14T10:56:43.847Z,3.30
2024-03-14T10:57:41.917Z,3.60
2024-03-14T10:58:41.819Z,3.90
2024-03-14T10:59:41.830Z,3.00
2024-03-14T11:00:41.934Z,3.50
2024-03-14T11:01:41.867Z,3.70
2024-03-14T11:02:41.785Z,3.70
2024-03-14T11:03:41.836Z,3.80
2024-03-14T11:04:41.867Z,3.20
2024-03-14T11:05:41.768Z,3.50
2024-03-14T11:06:41.810Z,2.90
2024-03-14T11:07:41.738Z,3.50
2024-03-14T11:08:41.765Z,3.50
2024-03-14T11:09:41.803Z,3.40
2024-03-14T11:10:41.742Z,3.80
2024-03-14T11:11:41.824Z,3.90
2024-03-14T11:12:41.749Z,3.10
2024-03-14T11:13:41.716Z,3.40
2024-03-14T11:14:41.686Z,3.20
2024-03-14T11:15:41.815Z,3.00
2024-03-14T11:16:41.665Z,3.40
2024-03-14T11:17:41.659Z,3.30
2024-03-14T11:18:41.691Z,3.20
2024-03-14T11:19:41.600Z,3.00
2024-03-14T11:20:41.633Z,4.10
2024-03-14T11:21:41.637Z,3.30
2024-03-14T11:22:41.570Z,2.90
2024-03-14T11:23:41.603Z,4.10
2024-03-14T11:24:41.592Z,3.40
2024-03-14T11:25:41.556Z,2.70
2024-03-14T11:26:41.592Z,3.20
2024-03-14T11:27:41.582Z,3.00
2024-03-14T11:28:41.532Z,3.20
2024-03-14T11:29:41.562Z,3.20
2024-03-14T11:30:41.562Z,2.80
2024-03-14T11:31:41.504Z,3.30
2024-03-14T11:32:41.543Z,2.90
2024-03-14T11:33:41.552Z,3.30
2024-03-14T11:34:41.547Z,3.30
2024-03-14T11:35:41.455Z,3.00
2024-03-14T11:36:41.498Z,3.00
2024-03-14T11:37:41.511Z,2.90
2024-03-14T11:38:41.441Z,2.30
2024-03-14T11:39:41.471Z,3.00
2024-03-14T11:40:41.384Z,3.20
2024-03-14T11:41:41.375Z,2.80
2024-03-14T11:42:41.420Z,2.70
2024-03-14T11:43:41.402Z,3.20
2024-03-14T11:44:41.363Z,2.50
2024-03-14T11:45:41.397Z,3.10
2024-03-14T11:46:42.815Z,3.10
2024-03-14T11:47:41.364Z,3.20
2024-03-14T11:48:41.495Z,3.10
2024-03-14T11:49:41.318Z,3.00
2024-03-14T11:50:41.296Z,3.00
2024-03-14T11:51:41.335Z,3.00
2024-03-14T11:52:41.291Z,2.60
2024-03-14T11:53:41.329Z,3.40
2024-03-14T11:54:41.265Z,3.40
2024-03-14T11:55:43.827Z,2.60
2024-03-14T11:56:41.268Z,3.00
2024-03-14T11:57:41.382Z,2.90
2024-03-14T11:58:41.336Z,2.60
2024-03-14T11:59:45.601Z,2.90
2024-03-14T12:00:41.219Z,3.50
2024-03-14T12:01:50.047Z,2.80
2024-03-14T12:02:41.179Z,3.10
2024-03-14T12:03:41.318Z,3.90
2024-03-14T12:04:41.196Z,3.20
2024-03-14T12:05:41.118Z,3.10
2024-03-14T12:06:41.180Z,3.10
2024-03-14T12:07:41.203Z,2.70
2024-03-14T12:08:41.267Z,2.80
2024-03-14T12:09:41.118Z,2.30
2024-03-14T12:10:41.092Z,2.90
2024-03-14T12:11:41.120Z,3.20
2024-03-14T12:12:41.198Z,2.70
2024-03-14T12:13:41.164Z,2.70
2024-03-14T12:14:41.080Z,2.60
2024-03-14T12:15:41.086Z,2.50
2024-03-14T12:42:23.049Z,2.40
2024-03-14T12:43:23.963Z,2.10
2024-03-14T12:44:24.007Z,2.10
2024-03-14T12:45:23.893Z,2.30
2024-03-14T12:46:23.812Z,2.00
2024-03-14T12:47:23.806Z,2.00
2024-03-14T12:48:23.908Z,2.30
2024-03-14T12:49:23.799Z,1.80
2024-03-14T12:50:23.790Z,2.50
2024-03-14T12:51:23.802Z,2.20
2024-03-14T12:52:23.750Z,2.00
2024-03-14T12:53:23.766Z,1.80
2024-03-14T12:54:23.800Z,1.80
2024-03-14T12:55:23.750Z,2.70
2024-03-14T12:56:23.759Z,1.70
2024-03-14T12:57:23.824Z,2.10
2024-03-14T12:58:24.139Z,1.70
2024-03-14T12:59:24.300Z,2.00
2024-03-14T13:00:23.741Z,2.20
2024-03-14T13:01:23.687Z,1.60
2024-03-14T13:02:23.657Z,1.70
2024-03-14T13:03:24.144Z,1.50
2024-03-14T13:04:23.677Z,2.30
2024-03-14T13:05:23.739Z,2.10
2024-03-14T13:06:23.806Z,1.70
2024-03-14T13:07:23.635Z,1.60
2024-03-14T13:08:23.632Z,1.70
2024-03-14T13:09:23.631Z,1.60
2024-03-14T13:10:23.563Z,1.50
2024-03-14T13:11:23.595Z,1.50
2024-03-14T13:12:24.146Z,1.80
2024-03-14T13:13:23.553Z,2.00
2024-03-14T13:14:23.543Z,2.10
2024-03-14T13:15:23.655Z,1.70
2024-03-14T13:16:23.583Z,2.00
2024-03-14T13:17:23.500Z,1.90
2024-03-14T13:18:23.731Z,2.20
2024-03-14T13:19:23.513Z,2.20
2024-03-14T13:20:23.562Z,2.00
2024-03-14T13:21:23.552Z,1.80
2024-03-14T13:22:23.450Z,1.60
2024-03-14T13:23:23.427Z,1.90
2024-03-14T13:24:23.467Z,1.90
2024-03-14T13:25:23.419Z,2.00
2024-03-14T13:26:23.378Z,2.10
2024-03-14T13:27:23.426Z,1.90
2024-03-14T13:28:23.363Z,2.30
2024-03-14T13:29:23.355Z,2.20
2024-03-14T13:30:23.411Z,2.10
2024-03-14T13:31:23.370Z,1.90
2024-03-14T13:32:23.333Z,1.90
2024-03-14T13:33:23.420Z,1.70
2024-03-14T13:34:23.355Z,2.10
2024-03-14T13:35:23.409Z,2.20
2024-03-14T13:36:23.382Z,2.20
2024-03-14T13:37:23.336Z,2.10
2024-03-14T13:38:23.288Z,2.10
2024-03-14T13:39:23.318Z,1.70
2024-03-14T13:40:23.396Z,2.30
2024-03-14T13:41:29.692Z,2.60
2024-03-14T13:42:23.380Z,2.20
2024-03-14T13:43:24.742Z,1.70
2024-03-14T13:44:23.238Z,2.10
2024-03-14T13:45:23.339Z,2.00
2024-03-14T13:46:23.189Z,2.70
2024-03-14T13:47:27.429Z,2.40
2024-03-14T13:48:23.395Z,3.00
2024-03-14T13:49:23.136Z,2.00
2024-03-14T13:50:23.148Z,2.60
2024-03-14T13:51:23.181Z,2.20
2024-03-14T13:52:23.165Z,2.80
2024-03-14T13:54:23.110Z,2.50
2024-03-14T13:55:23.091Z,2.60
2024-03-14T13:56:23.214Z,2.50
2024-03-14T13:57:23.078Z,2.70
2024-03-14T13:58:23.047Z,2.40
2024-03-14T13:59:23.084Z,2.40
2024-03-14T14:00:23.039Z,2.40
2024-03-14T14:01:23.279Z,2.30
2024-03-14T14:02:23.014Z,2.20
2024-03-14T14:03:23.060Z,2.30
2024-03-14T14:04:22.999Z,2.60
2024-03-14T14:05:22.982Z,2.20
2024-03-14T14:06:23.057Z,2.80
2024-03-14T14:07:22.922Z,2.50
2024-03-14T14:08:22.957Z,2.50
2024-03-14T14:09:23.013Z,2.20
2024-03-14T14:10:22.951Z,2.30
2024-03-14T14:11:22.980Z,2.30
2024-03-14T14:12:22.958Z,2.30
2024-03-14T14:13:22.890Z,2.60
2024-03-14T14:14:22.897Z,2.50
2024-03-14T14:15:22.885Z,2.20
2024-03-14T14:16:22.872Z,2.20
2024-03-14T14:17:22.927Z,2.20
2024-03-14T14:18:23.010Z,2.30
2024-03-14T14:19:22.898Z,2.40
2024-03-14T14:20:22.814Z,2.10
2024-03-14T14:21:24.449Z,2.00
2024-03-14T14:22:22.774Z,2.00
2024-03-14T14:23:22.785Z,2.20
2024-03-14T14:24:22.779Z,2.10
2024-03-14T14:25:22.788Z,2.20
2024-03-14T14:26:22.799Z,2.10
2024-03-14T14:27:22.817Z,1.80
2024-03-14T14:28:22.722Z,2.40
2024-03-14T14:29:22.719Z,2.00
2024-03-14T14:30:23.259Z,2.20
2024-03-14T14:31:22.741Z,1.60
2024-03-14T14:32:22.700Z,2.00
2024-03-14T14:33:23.896Z,1.80
2024-03-14T14:34:22.691Z,1.90
2024-03-14T14:35:22.764Z,2.60